sensor_id;sensor_type;location;lat;lon;timestamp;P1;durP1;ratioP1;P2;durP2;ratioP2
19812;SDS011;10066;48.108;11.448;2022-12-05T00:00:50;16.83;;;10.00;;
19812;SDS011;10066;48.108;11.448;2022-12-05T00:03:19;15.13;;;9.97;;
19812;SDS011;10066;48.108;11.448;2022-12-05T00:05:47;15.50;;;9.73;;
19812;SDS011;10066;48.108;11.448;2022-12-05T00:08:14;15.40;;;9.73;;
19812;SDS011;10066;48.108;11.448;2022-12-05T00:10:41;14.97;;;9.67;;
19812;SDS011;10066;48.108;11.448;2022-12-05T00:13:09;14.50;;;9.47;;
19812;SDS011;10066;48.108;11.448;2022-12-05T00:15:38;14.97;;;9.53;;
19812;SDS011;10066;48.108;11.448;2022-12-05T00:18:05;15.90;;;10.23;;
19812;SDS011;10066;48.108;11.448;2022-12-05T00:20:32;16.30;;;10.60;;
19812;SDS011;10066;48.108;11.448;2022-12-05T00:22:59;17.23;;;10.57;;
19812;SDS011;10066;48.108;11.448;2022-12-05T00:25:26;14.67;;;9.47;;
19812;SDS011;10066;48.108;11.448;2022-12-05T00:27:53;15.37;;;9.73;;
19812;SDS011;10066;48.108;11.448;2022-12-05T00:30:20;16.80;;;10.17;;
19812;SDS011;10066;48.108;11.448;2022-12-05T00:32:49;15.30;;;10.07;;
19812;SDS011;10066;48.108;11.448;2022-12-05T00:35:16;15.00;;;9.50;;
19812;SDS011;10066;48.108;11.448;2022-12-05T00:37:43;14.57;;;9.63;;
19812;SDS011;10066;48.108;11.448;2022-12-05T00:40:10;15.23;;;9.70;;
19812;SDS011;10066;48.108;11.448;2022-12-05T00:42:37;13.63;;;8.83;;
19812;SDS011;10066;48.108;11.448;2022-12-05T00:45:04;17.77;;;10.27;;
19812;SDS011;10066;48.108;11.448;2022-12-05T00:47:33;18.17;;;10.80;;
19812;SDS011;10066;48.108;11.448;2022-12-05T00:50:03;15.87;;;10.10;;
19812;SDS011;10066;48.108;11.448;2022-12-05T00:52:30;16.73;;;10.17;;
19812;SDS011;10066;48.108;11.448;2022-12-05T00:54:57;18.17;;;9.87;;
19812;SDS011;10066;48.108;11.448;2022-12-05T00:57:27;13.23;;;8.77;;
19812;SDS011;10066;48.108;11.448;2022-12-05T00:59:53;14.20;;;9.33;;
19812;SDS011;10066;48.108;11.448;2022-12-05T01:02:21;14.20;;;9.53;;
19812;SDS011;10066;48.108;11.448;2022-12-05T01:04:48;16.40;;;9.87;;
19812;SDS011;10066;48.108;11.448;2022-12-05T01:07:16;15.00;;;9.87;;
19812;SDS011;10066;48.108;11.448;2022-12-05T01:09:43;13.93;;;8.93;;
19812;SDS011;10066;48.108;11.448;2022-12-05T01:12:10;14.43;;;9.23;;
19812;SDS011;10066;48.108;11.448;2022-12-05T01:14:37;13.83;;;9.60;;
19812;SDS011;10066;48.108;11.448;2022-12-05T01:17:04;14.87;;;9.73;;
19812;SDS011;10066;48.108;11.448;2022-12-05T01:19:32;13.37;;;9.33;;
19812;SDS011;10066;48.108;11.448;2022-12-05T01:21:59;17.00;;;10.47;;
19812;SDS011;10066;48.108;11.448;2022-12-05T01:24:28;16.43;;;9.77;;
19812;SDS011;10066;48.108;11.448;2022-12-05T01:26:55;15.93;;;10.07;;
19812;SDS011;10066;48.108;11.448;2022-12-05T01:29:23;15.03;;;9.43;;
19812;SDS011;10066;48.108;11.448;2022-12-05T01:31:50;15.97;;;9.60;;
19812;SDS011;10066;48.108;11.448;2022-12-05T01:34:17;16.00;;;10.17;;
19812;SDS011;10066;48.108;11.448;2022-12-05T01:36:45;10.90;;;6.37;;
19812;SDS011;10066;48.108;11.448;2022-12-05T01:39:12;16.43;;;9.93;;
19812;SDS011;10066;48.108;11.448;2022-12-05T01:41:42;16.63;;;9.73;;
19812;SDS011;10066;48.108;11.448;2022-12-05T01:47:14;16.60;;;10.10;;
19812;SDS011;10066;48.108;11.448;2022-12-05T01:49:43;20.70;;;10.20;;
19812;SDS011;10066;48.108;11.448;2022-12-05T01:52:12;17.00;;;10.00;;
19812;SDS011;10066;48.108;11.448;2022-12-05T01:54:43;15.53;;;9.47;;
19812;SDS011;10066;48.108;11.448;2022-12-05T01:57:14;15.70;;;9.63;;
19812;SDS011;10066;48.108;11.448;2022-12-05T01:59:46;16.50;;;10.40;;
19812;SDS011;10066;48.108;11.448;2022-12-05T02:02:16;18.60;;;10.97;;
19812;SDS011;10066;48.108;11.448;2022-12-05T02:04:45;22.07;;;11.20;;
19812;SDS011;10066;48.108;11.448;2022-12-05T02:07:20;19.40;;;10.53;;
19812;SDS011;10066;48.108;11.448;2022-12-05T02:09:48;17.77;;;11.50;;
19812;SDS011;10066;48.108;11.448;2022-12-05T02:12:18;19.60;;;11.40;;
19812;SDS011;10066;48.108;11.448;2022-12-05T02:14:48;20.30;;;11.40;;
19812;SDS011;10066;48.108;11.448;2022-12-05T02:17:26;19.17;;;11.80;;
19812;SDS011;10066;48.108;11.448;2022-12-05T02:23:06;20.40;;;11.17;;
19812;SDS011;10066;48.108;11.448;2022-12-05T02:25:55;20.27;;;11.30;;
19812;SDS011;10066;48.108;11.448;2022-12-05T02:28:45;21.60;;;12.40;;
19812;SDS011;10066;48.108;11.448;2022-12-05T02:31:37;20.97;;;12.07;;
19812;SDS011;10066;48.108;11.448;2022-12-05T02:34:14;20.37;;;11.40;;
19812;SDS011;10066;48.108;11.448;2022-12-05T02:36:47;21.93;;;12.77;;
19812;SDS011;10066;48.108;11.448;2022-12-05T02:39:23;21.60;;;12.93;;
19812;SDS011;10066;48.108;11.448;2022-12-05T02:41:56;22.30;;;12.27;;
19812;SDS011;10066;48.108;11.448;2022-12-05T02:44:30;23.03;;;12.87;;
19812;SDS011;10066;48.108;11.448;2022-12-05T02:47:04;23.40;;;13.40;;
19812;SDS011;10066;48.108;11.448;2022-12-05T02:49:34;23.60;;;13.30;;
19812;SDS011;10066;48.108;11.448;2022-12-05T02:52:03;22.40;;;12.97;;
19812;SDS011;10066;48.108;11.448;2022-12-05T02:54:35;19.50;;;12.40;;
19812;SDS011;10066;48.108;11.448;2022-12-05T02:57:03;20.93;;;12.37;;
19812;SDS011;10066;48.108;11.448;2022-12-05T02:59:30;20.73;;;12.13;;
19812;SDS011;10066;48.108;11.448;2022-12-05T03:01:57;20.27;;;11.47;;
19812;SDS011;10066;48.108;11.448;2022-12-05T03:04:26;21.40;;;12.17;;
19812;SDS011;10066;48.108;11.448;2022-12-05T03:06:56;20.87;;;12.30;;
19812;SDS011;10066;48.108;11.448;2022-12-05T03:09:27;21.77;;;12.13;;
19812;SDS011;10066;48.108;11.448;2022-12-05T03:12:01;19.30;;;11.37;;
19812;SDS011;10066;48.108;11.448;2022-12-05T03:14:38;19.63;;;10.57;;
19812;SDS011;10066;48.108;11.448;2022-12-05T03:17:09;19.77;;;11.80;;
19812;SDS011;10066;48.108;11.448;2022-12-05T03:19:42;23.27;;;12.20;;
19812;SDS011;10066;48.108;11.448;2022-12-05T03:22:14;20.27;;;11.73;;
19812;SDS011;10066;48.108;11.448;2022-12-05T03:24:47;19.83;;;11.50;;
19812;SDS011;10066;48.108;11.448;2022-12-05T03:27:15;21.60;;;11.60;;
19812;SDS011;10066;48.108;11.448;2022-12-05T03:29:50;21.23;;;12.47;;
19812;SDS011;10066;48.108;11.448;2022-12-05T03:32:20;22.10;;;11.07;;
19812;SDS011;10066;48.108;11.448;2022-12-05T03:34:54;24.33;;;12.30;;
19812;SDS011;10066;48.108;11.448;2022-12-05T03:37:29;20.60;;;12.23;;
19812;SDS011;10066;48.108;11.448;2022-12-05T03:40:05;21.97;;;10.97;;
19812;SDS011;10066;48.108;11.448;2022-12-05T03:42:39;19.67;;;11.07;;
19812;SDS011;10066;48.108;11.448;2022-12-05T03:45:14;20.50;;;10.13;;
19812;SDS011;10066;48.108;11.448;2022-12-05T03:47:46;22.57;;;11.10;;
19812;SDS011;10066;48.108;11.448;2022-12-05T03:50:18;19.47;;;11.20;;
19812;SDS011;10066;48.108;11.448;2022-12-05T03:52:50;17.00;;;10.50;;
19812;SDS011;10066;48.108;11.448;2022-12-05T03:55:22;16.77;;;9.30;;
19812;SDS011;10066;48.108;11.448;2022-12-05T03:57:52;19.83;;;11.13;;
19812;SDS011;10066;48.108;11.448;2022-12-05T04:00:23;16.83;;;10.20;;
19812;SDS011;10066;48.108;11.448;2022-12-05T04:02:51;19.47;;;10.73;;
19812;SDS011;10066;48.108;11.448;2022-12-05T04:05:23;18.23;;;9.87;;
19812;SDS011;10066;48.108;11.448;2022-12-05T04:07:53;17.60;;;10.43;;
19812;SDS011;10066;48.108;11.448;2022-12-05T04:10:24;19.93;;;11.23;;
19812;SDS011;10066;48.108;11.448;2022-12-05T04:13:12;19.13;;;10.00;;
19812;SDS011;10066;48.108;11.448;2022-12-05T04:15:43;17.27;;;10.53;;
19812;SDS011;10066;48.108;11.448;2022-12-05T04:18:32;17.20;;;10.37;;
19812;SDS011;10066;48.108;11.448;2022-12-05T04:21:02;19.47;;;11.30;;
19812;SDS011;10066;48.108;11.448;2022-12-05T04:23:48;18.83;;;10.53;;
19812;SDS011;10066;48.108;11.448;2022-12-05T04:26:37;19.00;;;11.47;;
19812;SDS011;10066;48.108;11.448;2022-12-05T04:29:10;18.57;;;11.43;;
19812;SDS011;10066;48.108;11.448;2022-12-05T04:31:43;19.70;;;11.20;;
19812;SDS011;10066;48.108;11.448;2022-12-05T04:34:16;17.67;;;10.97;;
19812;SDS011;10066;48.108;11.448;2022-12-05T04:36:48;20.23;;;11.57;;
19812;SDS011;10066;48.108;11.448;2022-12-05T04:39:20;16.30;;;9.83;;
19812;SDS011;10066;48.108;11.448;2022-12-05T04:41:51;19.67;;;10.97;;
19812;SDS011;10066;48.108;11.448;2022-12-05T04:44:21;18.27;;;11.00;;
19812;SDS011;10066;48.108;11.448;2022-12-05T04:46:52;15.00;;;9.47;;
19812;SDS011;10066;48.108;11.448;2022-12-05T04:49:23;16.10;;;9.80;;
19812;SDS011;10066;48.108;11.448;2022-12-05T04:51:54;18.13;;;10.77;;
19812;SDS011;10066;48.108;11.448;2022-12-05T04:54:25;15.70;;;9.83;;
19812;SDS011;10066;48.108;11.448;2022-12-05T04:56:58;17.67;;;10.43;;
19812;SDS011;10066;48.108;11.448;2022-12-05T04:59:30;17.40;;;10.53;;
19812;SDS011;10066;48.108;11.448;2022-12-05T05:01:59;17.23;;;10.17;;
19812;SDS011;10066;48.108;11.448;2022-12-05T05:04:33;17.37;;;10.40;;
19812;SDS011;10066;48.108;11.448;2022-12-05T05:07:05;15.13;;;9.40;;
19812;SDS011;10066;48.108;11.448;2022-12-05T05:09:33;16.73;;;9.87;;
19812;SDS011;10066;48.108;11.448;2022-12-05T05:12:01;18.60;;;10.37;;
19812;SDS011;10066;48.108;11.448;2022-12-05T05:14:29;19.57;;;9.90;;
19812;SDS011;10066;48.108;11.448;2022-12-05T05:16:56;20.47;;;10.93;;
19812;SDS011;10066;48.108;11.448;2022-12-05T05:19:23;17.33;;;10.30;;
19812;SDS011;10066;48.108;11.448;2022-12-05T05:21:50;17.87;;;10.27;;
19812;SDS011;10066;48.108;11.448;2022-12-05T05:24:20;16.87;;;9.93;;
19812;SDS011;10066;48.108;11.448;2022-12-05T05:26:47;17.27;;;10.37;;
19812;SDS011;10066;48.108;11.448;2022-12-05T05:29:15;16.47;;;10.17;;
19812;SDS011;10066;48.108;11.448;2022-12-05T05:31:43;18.03;;;10.50;;
19812;SDS011;10066;48.108;11.448;2022-12-05T05:34:10;21.37;;;10.70;;
19812;SDS011;10066;48.108;11.448;2022-12-05T05:36:40;18.13;;;10.30;;
19812;SDS011;10066;48.108;11.448;2022-12-05T05:39:10;17.87;;;11.20;;
19812;SDS011;10066;48.108;11.448;2022-12-05T05:41:39;16.33;;;9.80;;
19812;SDS011;10066;48.108;11.448;2022-12-05T05:44:06;19.40;;;10.70;;
19812;SDS011;10066;48.108;11.448;2022-12-05T05:46:33;17.20;;;10.40;;
19812;SDS011;10066;48.108;11.448;2022-12-05T05:49:01;17.97;;;10.27;;
19812;SDS011;10066;48.108;11.448;2022-12-05T05:51:28;19.43;;;11.10;;
19812;SDS011;10066;48.108;11.448;2022-12-05T05:53:55;16.27;;;10.87;;
19812;SDS011;10066;48.108;11.448;2022-12-05T05:56:23;19.17;;;10.83;;
19812;SDS011;10066;48.108;11.448;2022-12-05T05:58:55;20.17;;;11.13;;
19812;SDS011;10066;48.108;11.448;2022-12-05T06:01:23;19.47;;;10.83;;
19812;SDS011;10066;48.108;11.448;2022-12-05T06:03:50;17.90;;;10.67;;
19812;SDS011;10066;48.108;11.448;2022-12-05T06:06:17;18.53;;;10.57;;
19812;SDS011;10066;48.108;11.448;2022-12-05T06:08:45;17.47;;;11.17;;
19812;SDS011;10066;48.108;11.448;2022-12-05T06:11:13;19.77;;;10.60;;
19812;SDS011;10066;48.108;11.448;2022-12-05T06:13:41;20.33;;;10.43;;
19812;SDS011;10066;48.108;11.448;2022-12-05T06:16:10;17.63;;;9.87;;
19812;SDS011;10066;48.108;11.448;2022-12-05T06:18:38;16.37;;;9.97;;
19812;SDS011;10066;48.108;11.448;2022-12-05T06:21:05;19.87;;;10.17;;
19812;SDS011;10066;48.108;11.448;2022-12-05T06:23:33;22.33;;;10.83;;
19812;SDS011;10066;48.108;11.448;2022-12-05T06:26:00;19.17;;;10.37;;
19812;SDS011;10066;48.108;11.448;2022-12-05T06:28:28;21.87;;;10.83;;
19812;SDS011;10066;48.108;11.448;2022-12-05T06:30:55;18.57;;;10.47;;
19812;SDS011;10066;48.108;11.448;2022-12-05T06:33:23;23.03;;;11.43;;
19812;SDS011;10066;48.108;11.448;2022-12-05T06:36:00;19.27;;;10.67;;
19812;SDS011;10066;48.108;11.448;2022-12-05T06:38:28;21.13;;;10.53;;
19812;SDS011;10066;48.108;11.448;2022-12-05T06:40:55;20.17;;;10.80;;
19812;SDS011;10066;48.108;11.448;2022-12-05T06:43:22;23.77;;;11.43;;
19812;SDS011;10066;48.108;11.448;2022-12-05T06:45:49;20.13;;;11.27;;
19812;SDS011;10066;48.108;11.448;2022-12-05T06:48:15;17.13;;;10.63;;
19812;SDS011;10066;48.108;11.448;2022-12-05T06:50:48;21.03;;;9.83;;
19812;SDS011;10066;48.108;11.448;2022-12-05T06:53:15;20.53;;;11.67;;
19812;SDS011;10066;48.108;11.448;2022-12-05T06:55:42;20.07;;;10.87;;
19812;SDS011;10066;48.108;11.448;2022-12-05T06:58:09;19.33;;;11.13;;
19812;SDS011;10066;48.108;11.448;2022-12-05T07:00:36;18.97;;;11.20;;
19812;SDS011;10066;48.108;11.448;2022-12-05T07:03:21;18.83;;;11.37;;
19812;SDS011;10066;48.108;11.448;2022-12-05T07:05:49;16.43;;;10.07;;
19812;SDS011;10066;48.108;11.448;2022-12-05T07:08:16;18.73;;;10.80;;
19812;SDS011;10066;48.108;11.448;2022-12-05T07:10:49;17.17;;;10.80;;
19812;SDS011;10066;48.108;11.448;2022-12-05T07:13:16;17.83;;;11.20;;
19812;SDS011;10066;48.108;11.448;2022-12-05T07:15:44;16.43;;;10.40;;
19812;SDS011;10066;48.108;11.448;2022-12-05T07:18:12;18.93;;;11.20;;
19812;SDS011;10066;48.108;11.448;2022-12-05T07:20:39;18.83;;;10.63;;
19812;SDS011;10066;48.108;11.448;2022-12-05T07:23:08;17.30;;;10.73;;
19812;SDS011;10066;48.108;11.448;2022-12-05T07:25:37;19.13;;;11.87;;
19812;SDS011;10066;48.108;11.448;2022-12-05T07:28:06;19.00;;;11.00;;
19812;SDS011;10066;48.108;11.448;2022-12-05T07:30:33;17.63;;;11.17;;
19812;SDS011;10066;48.108;11.448;2022-12-05T07:33:00;17.97;;;10.87;;
19812;SDS011;10066;48.108;11.448;2022-12-05T07:35:27;17.03;;;10.50;;
19812;SDS011;10066;48.108;11.448;2022-12-05T07:37:55;14.53;;;9.77;;
19812;SDS011;10066;48.108;11.448;2022-12-05T07:40:24;15.37;;;9.53;;
19812;SDS011;10066;48.108;11.448;2022-12-05T07:42:51;16.70;;;10.07;;
19812;SDS011;10066;48.108;11.448;2022-12-05T07:45:18;16.80;;;10.67;;
19812;SDS011;10066;48.108;11.448;2022-12-05T07:47:45;18.37;;;10.70;;
19812;SDS011;10066;48.108;11.448;2022-12-05T07:50:12;16.83;;;10.00;;
19812;SDS011;10066;48.108;11.448;2022-12-05T07:52:40;16.50;;;10.07;;
19812;SDS011;10066;48.108;11.448;2022-12-05T07:55:07;16.40;;;9.63;;
19812;SDS011;10066;48.108;11.448;2022-12-05T07:57:35;16.70;;;10.07;;
19812;SDS011;10066;48.108;11.448;2022-12-05T08:00:02;15.03;;;9.40;;
19812;SDS011;10066;48.108;11.448;2022-12-05T08:02:30;14.90;;;9.20;;
19812;SDS011;10066;48.108;11.448;2022-12-05T08:04:57;14.43;;;10.10;;
19812;SDS011;10066;48.108;11.448;2022-12-05T08:07:25;16.97;;;10.60;;
19812;SDS011;10066;48.108;11.448;2022-12-05T08:09:51;17.70;;;10.40;;
19812;SDS011;10066;48.108;11.448;2022-12-05T08:12:19;16.23;;;9.00;;
19812;SDS011;10066;48.108;11.448;2022-12-05T08:14:47;16.57;;;10.50;;
19812;SDS011;10066;48.108;11.448;2022-12-05T08:17:14;13.27;;;8.57;;
19812;SDS011;10066;48.108;11.448;2022-12-05T08:19:42;15.97;;;9.87;;
19812;SDS011;10066;48.108;11.448;2022-12-05T08:22:08;13.80;;;9.43;;
19812;SDS011;10066;48.108;11.448;2022-12-05T08:24:35;15.30;;;9.57;;
19812;SDS011;10066;48.108;11.448;2022-12-05T08:27:03;15.17;;;10.20;;
19812;SDS011;10066;48.108;11.448;2022-12-05T08:29:30;13.37;;;9.80;;
19812;SDS011;10066;48.108;11.448;2022-12-05T08:31:58;16.30;;;10.60;;
19812;SDS011;10066;48.108;11.448;2022-12-05T08:34:25;16.23;;;9.60;;
19812;SDS011;10066;48.108;11.448;2022-12-05T08:36:52;15.33;;;11.40;;
19812;SDS011;10066;48.108;11.448;2022-12-05T08:39:19;15.80;;;9.83;;
19812;SDS011;10066;48.108;11.448;2022-12-05T08:41:46;18.63;;;11.00;;
19812;SDS011;10066;48.108;11.448;2022-12-05T08:44:13;16.90;;;10.80;;
19812;SDS011;10066;48.108;11.448;2022-12-05T08:46:42;16.47;;;10.90;;
19812;SDS011;10066;48.108;11.448;2022-12-05T08:49:12;16.83;;;11.43;;
19812;SDS011;10066;48.108;11.448;2022-12-05T08:51:41;17.47;;;11.17;;
19812;SDS011;10066;48.108;11.448;2022-12-05T08:54:08;17.23;;;10.77;;
19812;SDS011;10066;48.108;11.448;2022-12-05T08:56:35;18.10;;;10.97;;
19812;SDS011;10066;48.108;11.448;2022-12-05T08:59:03;17.83;;;11.27;;
19812;SDS011;10066;48.108;11.448;2022-12-05T09:01:31;21.00;;;11.23;;
19812;SDS011;10066;48.108;11.448;2022-12-05T09:04:00;18.80;;;11.20;;
19812;SDS011;10066;48.108;11.448;2022-12-05T09:06:30;16.07;;;10.63;;
19812;SDS011;10066;48.108;11.448;2022-12-05T09:08:58;16.03;;;10.73;;
19812;SDS011;10066;48.108;11.448;2022-12-05T09:11:29;16.43;;;10.70;;
19812;SDS011;10066;48.108;11.448;2022-12-05T09:13:58;15.57;;;11.03;;
19812;SDS011;10066;48.108;11.448;2022-12-05T09:16:27;16.10;;;10.97;;
19812;SDS011;10066;48.108;11.448;2022-12-05T09:18:56;15.27;;;10.73;;
19812;SDS011;10066;48.108;11.448;2022-12-05T09:21:24;15.57;;;10.60;;
19812;SDS011;10066;48.108;11.448;2022-12-05T09:23:54;17.80;;;11.40;;
19812;SDS011;10066;48.108;11.448;2022-12-05T09:26:23;15.17;;;10.60;;
19812;SDS011;10066;48.108;11.448;2022-12-05T09:28:51;12.07;;;9.13;;
19812;SDS011;10066;48.108;11.448;2022-12-05T09:31:19;16.20;;;9.90;;
19812;SDS011;10066;48.108;11.448;2022-12-05T09:33:47;14.30;;;9.03;;
19812;SDS011;10066;48.108;11.448;2022-12-05T09:36:15;15.53;;;10.27;;
19812;SDS011;10066;48.108;11.448;2022-12-05T09:38:44;15.60;;;10.33;;
19812;SDS011;10066;48.108;11.448;2022-12-05T09:41:14;14.50;;;9.77;;
19812;SDS011;10066;48.108;11.448;2022-12-05T09:44:13;14.73;;;9.67;;
19812;SDS011;10066;48.108;11.448;2022-12-05T09:46:48;14.00;;;9.87;;
19812;SDS011;10066;48.108;11.448;2022-12-05T09:49:21;12.80;;;9.40;;
19812;SDS011;10066;48.108;11.448;2022-12-05T09:51:49;15.97;;;9.57;;
19812;SDS011;10066;48.108;11.448;2022-12-05T09:54:17;14.60;;;9.43;;
19812;SDS011;10066;48.108;11.448;2022-12-05T09:56:47;11.90;;;9.07;;
19812;SDS011;10066;48.108;11.448;2022-12-05T09:59:15;11.87;;;8.83;;
19812;SDS011;10066;48.108;11.448;2022-12-05T10:01:45;13.97;;;9.37;;
19812;SDS011;10066;48.108;11.448;2022-12-05T10:04:24;13.90;;;9.30;;
19812;SDS011;10066;48.108;11.448;2022-12-05T10:07:05;13.70;;;9.70;;
19812;SDS011;10066;48.108;11.448;2022-12-05T10:09:44;13.57;;;9.73;;
19812;SDS011;10066;48.108;11.448;2022-12-05T10:12:23;13.60;;;9.67;;
19812;SDS011;10066;48.108;11.448;2022-12-05T10:15:08;14.60;;;9.30;;
19812;SDS011;10066;48.108;11.448;2022-12-05T10:17:40;13.63;;;9.53;;
19812;SDS011;10066;48.108;11.448;2022-12-05T10:20:12;14.77;;;8.90;;
19812;SDS011;10066;48.108;11.448;2022-12-05T10:22:42;11.77;;;8.83;;
19812;SDS011;10066;48.108;11.448;2022-12-05T10:25:13;17.03;;;9.70;;
19812;SDS011;10066;48.108;11.448;2022-12-05T10:27:47;12.37;;;8.97;;
19812;SDS011;10066;48.108;11.448;2022-12-05T10:30:19;14.53;;;10.10;;
19812;SDS011;10066;48.108;11.448;2022-12-05T10:32:50;13.23;;;9.90;;
19812;SDS011;10066;48.108;11.448;2022-12-05T10:35:20;12.70;;;9.67;;
19812;SDS011;10066;48.108;11.448;2022-12-05T10:37:48;14.50;;;9.53;;
19812;SDS011;10066;48.108;11.448;2022-12-05T10:40:17;14.33;;;9.60;;
19812;SDS011;10066;48.108;11.448;2022-12-05T10:42:46;13.97;;;9.83;;
19812;SDS011;10066;48.108;11.448;2022-12-05T10:45:16;13.50;;;10.20;;
19812;SDS011;10066;48.108;11.448;2022-12-05T10:47:46;13.10;;;9.43;;
19812;SDS011;10066;48.108;11.448;2022-12-05T10:50:19;13.83;;;9.30;;
19812;SDS011;10066;48.108;11.448;2022-12-05T10:52:49;15.07;;;9.00;;
19812;SDS011;10066;48.108;11.448;2022-12-05T10:55:18;15.37;;;9.80;;
19812;SDS011;10066;48.108;11.448;2022-12-05T10:57:49;13.13;;;9.87;;
19812;SDS011;10066;48.108;11.448;2022-12-05T11:00:19;13.97;;;9.53;;
19812;SDS011;10066;48.108;11.448;2022-12-05T11:02:49;12.53;;;9.40;;
19812;SDS011;10066;48.108;11.448;2022-12-05T11:05:26;13.47;;;9.53;;
19812;SDS011;10066;48.108;11.448;2022-12-05T11:07:54;12.83;;;9.10;;
19812;SDS011;10066;48.108;11.448;2022-12-05T11:10:24;13.27;;;9.40;;
19812;SDS011;10066;48.108;11.448;2022-12-05T11:12:56;13.47;;;9.03;;
19812;SDS011;10066;48.108;11.448;2022-12-05T11:15:24;12.30;;;9.17;;
19812;SDS011;10066;48.108;11.448;2022-12-05T11:17:53;14.57;;;9.30;;
19812;SDS011;10066;48.108;11.448;2022-12-05T11:23:25;12.53;;;9.17;;
19812;SDS011;10066;48.108;11.448;2022-12-05T11:25:54;12.37;;;8.83;;
19812;SDS011;10066;48.108;11.448;2022-12-05T11:28:35;10.77;;;8.77;;
19812;SDS011;10066;48.108;11.448;2022-12-05T11:31:03;13.90;;;9.40;;
19812;SDS011;10066;48.108;11.448;2022-12-05T11:33:32;12.53;;;9.07;;
19812;SDS011;10066;48.108;11.448;2022-12-05T11:36:07;11.67;;;8.70;;
19812;SDS011;10066;48.108;11.448;2022-12-05T11:38:39;12.03;;;8.53;;
19812;SDS011;10066;48.108;11.448;2022-12-05T11:41:14;11.23;;;8.63;;
19812;SDS011;10066;48.108;11.448;2022-12-05T11:44:11;11.10;;;8.27;;
19812;SDS011;10066;48.108;11.448;2022-12-05T11:46:57;11.07;;;8.00;;
19812;SDS011;10066;48.108;11.448;2022-12-05T11:49:38;14.43;;;8.87;;
19812;SDS011;10066;48.108;11.448;2022-12-05T11:52:20;12.33;;;8.23;;
19812;SDS011;10066;48.108;11.448;2022-12-05T11:54:54;11.03;;;8.23;;
19812;SDS011;10066;48.108;11.448;2022-12-05T11:57:27;11.77;;;8.40;;
19812;SDS011;10066;48.108;11.448;2022-12-05T12:05:49;27.73;;;19.07;;
19812;SDS011;10066;48.108;11.448;2022-12-05T12:08:23;13.00;;;8.90;;
19812;SDS011;10066;48.108;11.448;2022-12-05T12:10:54;13.53;;;8.20;;
19812;SDS011;10066;48.108;11.448;2022-12-05T12:13:31;10.17;;;7.80;;
19812;SDS011;10066;48.108;11.448;2022-12-05T12:16:11;9.90;;;7.90;;
19812;SDS011;10066;48.108;11.448;2022-12-05T12:18:53;11.20;;;8.27;;
19812;SDS011;10066;48.108;11.448;2022-12-05T12:21:31;11.03;;;7.83;;
19812;SDS011;10066;48.108;11.448;2022-12-05T12:24:07;10.97;;;7.37;;
19812;SDS011;10066;48.108;11.448;2022-12-05T12:26:45;14.93;;;7.97;;
19812;SDS011;10066;48.108;11.448;2022-12-05T12:29:26;11.40;;;6.77;;
19812;SDS011;10066;48.108;11.448;2022-12-05T12:32:05;9.33;;;6.57;;
19812;SDS011;10066;48.108;11.448;2022-12-05T12:34:50;9.17;;;7.07;;
19812;SDS011;10066;48.108;11.448;2022-12-05T12:37:33;9.87;;;7.07;;
19812;SDS011;10066;48.108;11.448;2022-12-05T12:40:11;10.13;;;6.83;;
19812;SDS011;10066;48.108;11.448;2022-12-05T12:42:42;11.07;;;6.43;;
19812;SDS011;10066;48.108;11.448;2022-12-05T12:45:24;8.03;;;6.20;;
19812;SDS011;10066;48.108;11.448;2022-12-05T12:48:08;8.23;;;6.30;;
19812;SDS011;10066;48.108;11.448;2022-12-05T12:50:50;8.20;;;5.70;;
19812;SDS011;10066;48.108;11.448;2022-12-05T12:56:19;7.67;;;5.43;;
19812;SDS011;10066;48.108;11.448;2022-12-05T12:59:02;9.00;;;5.40;;
19812;SDS011;10066;48.108;11.448;2022-12-05T13:01:38;7.03;;;5.00;;
19812;SDS011;10066;48.108;11.448;2022-12-05T13:04:13;7.60;;;5.33;;
19812;SDS011;10066;48.108;11.448;2022-12-05T13:06:44;7.47;;;5.30;;
19812;SDS011;10066;48.108;11.448;2022-12-05T13:09:15;8.40;;;4.97;;
19812;SDS011;10066;48.108;11.448;2022-12-05T13:11:48;6.43;;;4.53;;
19812;SDS011;10066;48.108;11.448;2022-12-05T13:14:18;5.73;;;4.57;;
19812;SDS011;10066;48.108;11.448;2022-12-05T13:16:50;5.40;;;4.40;;
19812;SDS011;10066;48.108;11.448;2022-12-05T13:19:27;9.57;;;4.80;;
19812;SDS011;10066;48.108;11.448;2022-12-05T13:22:01;4.87;;;3.90;;
19812;SDS011;10066;48.108;11.448;2022-12-05T13:24:29;5.43;;;3.80;;
19812;SDS011;10066;48.108;11.448;2022-12-05T13:26:57;5.23;;;3.87;;
19812;SDS011;10066;48.108;11.448;2022-12-05T13:29:28;3.53;;;2.80;;
19812;SDS011;10066;48.108;11.448;2022-12-05T13:31:58;6.47;;;3.67;;
19812;SDS011;10066;48.108;11.448;2022-12-05T13:34:54;7.47;;;3.33;;
19812;SDS011;10066;48.108;11.448;2022-12-05T13:37:23;4.70;;;3.20;;
19812;SDS011;10066;48.108;11.448;2022-12-05T13:40:18;6.27;;;3.13;;
19812;SDS011;10066;48.108;11.448;2022-12-05T13:43:07;4.97;;;3.37;;
19812;SDS011;10066;48.108;11.448;2022-12-05T13:45:35;3.93;;;3.00;;
19812;SDS011;10066;48.108;11.448;2022-12-05T13:48:07;4.63;;;3.00;;
19812;SDS011;10066;48.108;11.448;2022-12-05T13:50:42;3.60;;;2.87;;
19812;SDS011;10066;48.108;11.448;2022-12-05T13:53:21;3.23;;;2.40;;
19812;SDS011;10066;48.108;11.448;2022-12-05T13:55:57;6.27;;;2.63;;
19812;SDS011;10066;48.108;11.448;2022-12-05T13:58:36;4.23;;;2.87;;
19812;SDS011;10066;48.108;11.448;2022-12-05T14:04:23;3.30;;;2.60;;
19812;SDS011;10066;48.108;11.448;2022-12-05T14:10:04;3.97;;;2.50;;
19812;SDS011;10066;48.108;11.448;2022-12-05T14:12:51;2.93;;;2.50;;
19812;SDS011;10066;48.108;11.448;2022-12-05T14:15:27;3.20;;;2.50;;
19812;SDS011;10066;48.108;11.448;2022-12-05T14:17:59;3.67;;;2.70;;
19812;SDS011;10066;48.108;11.448;2022-12-05T14:20:42;3.33;;;2.63;;
19812;SDS011;10066;48.108;11.448;2022-12-05T14:23:25;3.77;;;2.97;;
19812;SDS011;10066;48.108;11.448;2022-12-05T14:26:25;3.80;;;2.80;;
19812;SDS011;10066;48.108;11.448;2022-12-05T14:29:22;3.23;;;2.60;;
19812;SDS011;10066;48.108;11.448;2022-12-05T14:32:02;3.47;;;2.83;;
19812;SDS011;10066;48.108;11.448;2022-12-05T14:34:46;3.83;;;3.07;;
19812;SDS011;10066;48.108;11.448;2022-12-05T14:37:23;6.83;;;3.60;;
19812;SDS011;10066;48.108;11.448;2022-12-05T14:39:54;3.83;;;2.93;;
19812;SDS011;10066;48.108;11.448;2022-12-05T14:42:32;3.40;;;2.43;;
19812;SDS011;10066;48.108;11.448;2022-12-05T14:45:16;8.23;;;3.10;;
19812;SDS011;10066;48.108;11.448;2022-12-05T14:47:51;3.27;;;2.90;;
19812;SDS011;10066;48.108;11.448;2022-12-05T14:50:21;3.63;;;2.47;;
19812;SDS011;10066;48.108;11.448;2022-12-05T14:55:51;3.97;;;3.10;;
19812;SDS011;10066;48.108;11.448;2022-12-05T14:58:24;5.10;;;3.47;;
19812;SDS011;10066;48.108;11.448;2022-12-05T15:00:56;3.53;;;2.70;;
19812;SDS011;10066;48.108;11.448;2022-12-05T15:03:28;5.27;;;3.30;;
19812;SDS011;10066;48.108;11.448;2022-12-05T15:05:57;3.70;;;3.17;;
19812;SDS011;10066;48.108;11.448;2022-12-05T15:08:26;6.60;;;3.07;;
19812;SDS011;10066;48.108;11.448;2022-12-05T15:11:01;5.00;;;2.97;;